createdAt,value
2023-03-21T00:01:08.077Z,8.9
2023-03-21T00:03:09.450Z,8.9
2023-03-21T00:05:15.876Z,9
2023-03-21T00:07:17.037Z,8.9
2023-03-21T00:09:18.442Z,9
2023-03-21T00:11:19.825Z,8.9
2023-03-21T00:13:21.248Z,9
2023-03-21T00:15:24.874Z,8.9
2023-03-21T00:25:32.856Z,8.9
2023-03-21T00:27:53.209Z,8.9
2023-03-21T00:31:37.034Z,8.9
2023-03-21T00:33:38.416Z,8.8
2023-03-21T00:39:45.936Z,8.8
2023-03-21T00:41:47.352Z,8.9
2023-03-21T00:43:48.669Z,8.8
2023-03-21T00:45:50.077Z,8.8
2023-03-21T00:47:51.611Z,8.8
2023-03-21T00:52:08.659Z,8.9
2023-03-21T00:55:01.209Z,8.9
2023-03-21T00:57:02.574Z,8.8
2023-03-21T01:01:05.439Z,8.9
2023-03-21T01:05:11.417Z,8.8
2023-03-21T01:07:12.780Z,8.9
2023-03-21T01:09:14.181Z,8.9
2023-03-21T01:13:16.960Z,8.9
2023-03-21T01:15:18.400Z,8.8
2023-03-21T01:19:29.138Z,8.8
2023-03-21T01:23:27.219Z,8.8
2023-03-21T01:25:28.623Z,8.8
2023-03-21T01:27:29.977Z,8.8
2023-03-21T01:29:31.370Z,8.9
2023-03-21T01:31:36.115Z,8.7
2023-03-21T01:33:37.455Z,8.8
2023-03-21T01:35:50.185Z,8.8
2023-03-21T01:37:40.222Z,8.8
2023-03-21T01:39:41.648Z,8.8
2023-03-21T01:41:44.429Z,8.8
2023-03-21T01:45:49.528Z,8.8
2023-03-21T01:47:51.015Z,8.8
2023-03-21T01:50:54.646Z,8.8
2023-03-21T01:52:56.056Z,8.7
2023-03-21T01:54:57.436Z,8.8
2023-03-21T01:56:58.820Z,8.7
2023-03-21T01:59:03.487Z,8.8
2023-03-21T02:01:05.119Z,8.7
2023-03-21T02:03:14.038Z,8.8
2023-03-21T02:05:07.692Z,8.7
2023-03-21T02:07:09.259Z,8.7
2023-03-21T02:09:10.430Z,8.7
2023-03-21T02:13:16.516Z,8.7
2023-03-21T02:15:17.903Z,8.8
2023-03-21T02:19:29.556Z,8.7
2023-03-21T02:23:23.449Z,8.7
2023-03-21T02:25:24.846Z,8.7
2023-03-21T02:31:32.427Z,8.7
2023-03-21T02:37:38.621Z,8.7
2023-03-21T02:39:37.873Z,8.7
2023-03-21T02:46:53.806Z,8.7
2023-03-21T02:48:51.035Z,8.7
2023-03-21T02:50:50.469Z,8.7
2023-03-21T02:52:51.851Z,8.6
2023-03-21T02:54:56.519Z,8.6
2023-03-21T02:56:57.930Z,8.7
2023-03-21T02:58:59.315Z,8.7
2023-03-21T03:01:00.703Z,8.7
2023-03-21T03:03:09.295Z,8.7
2023-03-21T03:05:11.526Z,8.6
2023-03-21T03:07:04.886Z,8.7
2023-03-21T03:09:09.612Z,8.7
2023-03-21T03:11:10.969Z,8.6
2023-03-21T03:13:12.346Z,8.6
2023-03-21T03:15:13.768Z,8.7
2023-03-21T03:17:15.133Z,8.6
2023-03-21T03:19:16.532Z,8.7
2023-03-21T03:29:26.793Z,8.7
2023-03-21T03:31:28.243Z,8.7
2023-03-21T03:33:29.571Z,8.7
2023-03-21T03:39:37.029Z,8.7
2023-03-21T03:42:03.036Z,8.7
2023-03-21T03:43:59.223Z,8.6
2023-03-21T03:46:00.613Z,8.7
2023-03-21T03:48:02.029Z,8.6
2023-03-21T03:50:06.638Z,8.7
2023-03-21T03:52:09.614Z,8.7
2023-03-21T03:54:09.409Z,8.6
2023-03-21T03:56:10.812Z,8.7
2023-03-21T03:58:21.812Z,8.7
2023-03-21T04:00:13.595Z,8.6
2023-03-21T04:02:15.089Z,8.6
2023-03-21T04:04:19.684Z,8.6
2023-03-21T04:06:21.043Z,8.7
2023-03-21T04:10:23.809Z,8.7
2023-03-21T04:12:25.213Z,8.6
2023-03-21T04:18:32.644Z,8.5
2023-03-21T04:20:37.243Z,8.6
2023-03-21T04:22:35.424Z,8.7
2023-03-21T04:24:36.804Z,8.7
2023-03-21T04:26:38.197Z,8.6
2023-03-21T04:32:45.626Z,8.6
2023-03-21T04:34:47.053Z,8.6
2023-03-21T04:36:48.440Z,8.6
2023-03-21T04:37:50.799Z,8.6
2023-03-21T04:39:52.175Z,8.6
2023-03-21T04:41:53.553Z,8.6
2023-03-21T04:43:54.954Z,8.6
2023-03-21T04:45:59.729Z,8.6
2023-03-21T04:48:01.043Z,8.5
2023-03-21T04:50:02.444Z,8.5
2023-03-21T04:52:04.190Z,8.5
2023-03-21T04:54:05.223Z,8.5
2023-03-21T04:56:06.586Z,8.5
2023-03-21T05:02:14.053Z,8.5
2023-03-21T05:04:15.520Z,8.4
2023-03-21T05:06:16.864Z,8.4
2023-03-21T05:08:18.261Z,8.4
2023-03-21T05:10:19.645Z,8.4
2023-03-21T05:14:25.700Z,8.3
2023-03-21T05:26:34.004Z,8.4
2023-03-21T05:28:38.671Z,8.3
2023-03-21T05:30:40.123Z,8.3
2023-03-21T05:32:41.434Z,8.2
2023-03-21T05:33:43.814Z,8.3
2023-03-21T05:35:45.228Z,8.3
2023-03-21T05:37:46.553Z,8.3
2023-03-21T05:39:47.949Z,8.3
2023-03-21T05:41:52.597Z,8.3
2023-03-21T05:43:53.980Z,8.3
2023-03-21T05:45:55.456Z,8.3
2023-03-21T05:47:56.781Z,8.3
2023-03-21T05:49:58.093Z,8.3
2023-03-21T05:56:07.082Z,8.3
2023-03-21T05:58:08.507Z,8.3
2023-03-21T06:00:09.868Z,8.3
2023-03-21T06:06:14.074Z,8.3
2023-03-21T06:08:15.422Z,8.3
2023-03-21T06:16:24.304Z,8.3
2023-03-21T06:18:25.656Z,8.3
2023-03-21T06:20:27.023Z,8.3
2023-03-21T06:22:28.403Z,8.3
2023-03-21T06:24:33.096Z,8.3
2023-03-21T06:26:34.502Z,8.3
2023-03-21T06:28:35.834Z,8.4
2023-03-21T06:31:39.708Z,8.3
2023-03-21T06:33:40.953Z,8.4
2023-03-21T06:35:42.364Z,8.4
2023-03-21T06:37:47.007Z,8.3
2023-03-21T06:39:48.403Z,8.3
2023-03-21T06:41:49.793Z,8.4
2023-03-21T06:43:51.171Z,8.4
2023-03-21T06:47:53.950Z,8.4
2023-03-21T06:49:55.336Z,8.4
2023-03-21T06:52:00.039Z,8.5
2023-03-21T06:56:02.760Z,8.5
2023-03-21T06:58:04.136Z,8.5
2023-03-21T07:00:05.549Z,8.5
2023-03-21T07:02:06.967Z,8.5
2023-03-21T07:04:08.268Z,8.5
2023-03-21T07:06:12.958Z,8.5
2023-03-21T07:08:14.343Z,8.5
2023-03-21T07:10:15.732Z,8.6
2023-03-21T07:12:17.098Z,8.6
2023-03-21T07:14:18.485Z,8.6
2023-03-21T07:18:21.237Z,8.6
2023-03-21T07:20:25.924Z,8.6
2023-03-21T07:22:27.326Z,8.6
2023-03-21T07:24:28.704Z,8.7
2023-03-21T07:26:55.600Z,8.7
2023-03-21T07:28:56.984Z,8.7
2023-03-21T07:30:58.376Z,8.8
2023-03-21T07:33:03.062Z,8.8
2023-03-21T07:35:04.452Z,8.8
2023-03-21T07:37:05.850Z,8.9
2023-03-21T07:39:07.205Z,8.9
2023-03-21T07:41:08.601Z,9
2023-03-21T07:43:10.072Z,8.9
2023-03-21T07:47:16.087Z,9
2023-03-21T07:49:17.500Z,9
2023-03-21T07:55:21.606Z,9
2023-03-21T07:57:22.999Z,8.9
2023-03-21T07:59:24.421Z,9
2023-03-21T08:01:29.086Z,8.9
2023-03-21T08:03:30.505Z,8.9
2023-03-21T08:05:31.871Z,8.9
2023-03-21T08:07:33.242Z,8.9
2023-03-21T08:09:34.650Z,8.9
2023-03-21T08:11:36.015Z,8.9
2023-03-21T08:13:37.406Z,8.8
2023-03-21T08:15:42.330Z,8.9
2023-03-21T08:17:43.494Z,8.8
2023-03-21T08:19:44.885Z,8.8
2023-03-21T08:20:47.205Z,8.8
2023-03-21T08:22:48.601Z,8.9
2023-03-21T08:28:56.084Z,8.9
2023-03-21T08:39:03.029Z,9.1
2023-03-21T08:41:04.424Z,9.1
2023-03-21T08:45:10.468Z,9.2
2023-03-21T08:47:11.856Z,9.2
2023-03-21T08:49:13.243Z,9.2
2023-03-21T08:51:14.673Z,9.2
2023-03-21T08:53:16.024Z,9.3
2023-03-21T08:55:17.403Z,9.4
2023-03-21T08:57:22.112Z,9.5
2023-03-21T08:59:23.506Z,9.4
2023-03-21T09:01:24.944Z,9.4
2023-03-21T09:03:26.260Z,9.5
2023-03-21T09:05:27.659Z,9.3
2023-03-21T09:11:35.199Z,9.6
2023-03-21T09:13:36.528Z,9.6
2023-03-21T09:15:38.260Z,9.6
2023-03-21T09:16:40.245Z,9.5
2023-03-21T09:18:41.617Z,9.6
2023-03-21T09:20:43.106Z,9.6
2023-03-21T09:22:44.395Z,9.5
2023-03-21T09:24:49.056Z,9.6
2023-03-21T09:26:50.409Z,9.8
2023-03-21T09:30:53.246Z,9.7
2023-03-21T09:32:54.609Z,9.8
2023-03-21T09:34:55.933Z,9.8
2023-03-21T09:36:57.343Z,9.8
2023-03-21T09:39:02.162Z,9.8
2023-03-21T09:41:03.437Z,9.9
2023-03-21T09:43:04.844Z,9.8
2023-03-21T09:45:06.241Z,9.8
2023-03-21T09:47:07.603Z,9.7
2023-03-21T09:49:08.972Z,9.8
2023-03-21T09:51:10.358Z,9.7
2023-03-21T09:53:15.076Z,9.7
2023-03-21T09:55:16.473Z,9.7
2023-03-21T09:57:17.883Z,9.9
2023-03-21T10:03:22.014Z,9.9
2023-03-21T10:05:23.420Z,9.9
2023-03-21T10:07:28.173Z,9.7
2023-03-21T10:11:30.843Z,9.8
2023-03-21T10:12:33.211Z,9.8
2023-03-21T10:14:34.561Z,9.8
2023-03-21T10:16:35.954Z,9.6
2023-03-21T10:18:37.318Z,9.6
2023-03-21T10:20:41.985Z,9.9
2023-03-21T10:22:43.387Z,9.7
2023-03-21T10:24:44.785Z,9.9
2023-03-21T10:28:53.178Z,10
2023-03-21T10:30:48.945Z,10
2023-03-21T10:32:50.416Z,10.1
2023-03-21T10:36:56.382Z,10
2023-03-21T10:38:57.822Z,10.1
2023-03-21T10:40:59.157Z,10.2
2023-03-21T10:43:00.560Z,10.3
2023-03-21T10:45:01.932Z,10.2
2023-03-21T10:47:03.634Z,10.3
2023-03-21T10:49:08.227Z,10.5
2023-03-21T10:51:09.408Z,10.5
2023-03-21T10:53:10.811Z,10.4
2023-03-21T10:55:12.202Z,10.3
2023-03-21T10:57:13.624Z,10.3
2023-03-21T10:59:14.975Z,10.4
2023-03-21T11:05:22.395Z,10.4
2023-03-21T11:09:53.635Z,10.7
2023-03-21T11:11:53.237Z,10.8
2023-03-21T11:13:54.604Z,11.1
2023-03-21T11:15:59.341Z,10.8
2023-03-21T11:18:00.733Z,10.7
2023-03-21T11:20:02.133Z,11.1
2023-03-21T11:22:03.491Z,11.3
2023-03-21T11:24:04.912Z,11.1
2023-03-21T11:28:07.675Z,11.6
2023-03-21T11:30:12.386Z,11.4
2023-03-21T11:32:13.759Z,11.5
2023-03-21T11:42:20.731Z,10.8
2023-03-21T11:50:31.041Z,11.3
2023-03-21T12:00:41.276Z,11.1
2023-03-21T12:02:42.804Z,11.1
2023-03-21T12:03:48.275Z,11.3
2023-03-21T12:13:55.297Z,11.3
2023-03-21T12:15:56.672Z,11.4
2023-03-21T12:22:00.841Z,11.2
2023-03-21T12:24:02.337Z,11.5
2023-03-21T12:26:06.902Z,11.4
2023-03-21T12:28:08.322Z,11.2
2023-03-21T12:30:09.695Z,10.9
2023-03-21T12:32:11.081Z,10.9
2023-03-21T12:34:12.471Z,11.1
2023-03-21T12:36:13.897Z,11.1
2023-03-21T12:38:15.242Z,11
2023-03-21T12:40:19.945Z,10.9
2023-03-21T12:42:21.329Z,11
2023-03-21T12:44:22.723Z,11
2023-03-21T12:46:24.151Z,11.1
2023-03-21T12:48:25.582Z,11.4
2023-03-21T12:50:26.897Z,11.3
2023-03-21T12:54:33.012Z,11.7
2023-03-21T12:56:34.407Z,12.2
2023-03-21T12:59:38.063Z,11.9
2023-03-21T13:05:42.238Z,13
2023-03-21T13:07:46.937Z,12.8
2023-03-21T13:09:48.340Z,12.9
2023-03-21T13:11:49.690Z,13.2
2023-03-21T13:13:51.099Z,13.3
2023-03-21T13:15:52.695Z,13.1
2023-03-21T13:17:53.851Z,13.3
2023-03-21T13:19:55.211Z,13.3
2023-03-21T13:21:59.878Z,13.1
2023-03-21T13:24:01.330Z,13.2
2023-03-21T13:26:02.731Z,13.4
2023-03-21T13:28:04.096Z,13.4
2023-03-21T13:30:05.525Z,13.3
2023-03-21T13:32:06.885Z,13.4
2023-03-21T13:34:08.270Z,13.8
2023-03-21T13:36:12.943Z,13.7
2023-03-21T13:38:14.325Z,13.7
2023-03-21T13:40:15.706Z,13.8
2023-03-21T13:48:21.259Z,13.9
2023-03-21T13:52:27.344Z,14.4
2023-03-21T13:54:28.688Z,13.9
2023-03-21T13:55:31.031Z,14.9
2023-03-21T13:57:32.448Z,15.2
2023-03-21T13:59:33.794Z,15.3
2023-03-21T14:01:35.291Z,15.4
2023-03-21T14:03:39.825Z,17.2
2023-03-21T14:05:41.801Z,17.2
2023-03-21T14:07:42.672Z,16.8
2023-03-21T14:09:44.015Z,15.3
2023-03-21T14:11:47.025Z,14.5
2023-03-21T14:13:51.173Z,14.6
2023-03-21T14:15:55.210Z,14.6
2023-03-21T14:17:52.864Z,14.2
2023-03-21T14:19:54.263Z,14.2
2023-03-21T14:21:55.686Z,14.6
2023-03-21T14:23:57.039Z,14.4
2023-03-21T14:25:58.407Z,14.1
2023-03-21T14:27:59.817Z,14
2023-03-21T14:30:01.178Z,14.6
2023-03-21T14:32:06.034Z,15.2
2023-03-21T14:34:07.249Z,15.2
2023-03-21T14:36:08.699Z,16.6
2023-03-21T14:38:09.963Z,15.6
2023-03-21T14:40:11.385Z,14.7
2023-03-21T14:42:12.937Z,14.5
2023-03-21T14:44:14.160Z,14.3
2023-03-21T14:48:20.230Z,14.2
2023-03-21T14:50:21.600Z,14.4
2023-03-21T14:52:50.276Z,14.5
2023-03-21T14:54:51.665Z,14.5
2023-03-21T14:56:53.034Z,15.9
2023-03-21T14:58:57.760Z,16.6
2023-03-21T15:03:00.717Z,15.4
2023-03-21T15:05:01.937Z,15.1
2023-03-21T15:07:03.283Z,14.6
2023-03-21T15:09:04.669Z,14.2
2023-03-21T15:11:07.701Z,14.1
2023-03-21T15:13:10.715Z,13.8
2023-03-21T15:15:12.098Z,13.8
2023-03-21T15:17:13.499Z,13.8
2023-03-21T15:19:14.873Z,13.6
2023-03-21T15:21:16.274Z,13.5
2023-03-21T15:23:17.671Z,13.4
2023-03-21T15:25:19.044Z,13.4
2023-03-21T15:27:23.749Z,13.4
2023-03-21T15:29:25.128Z,13.4
2023-03-21T15:31:26.538Z,13.4
2023-03-21T15:33:27.898Z,13.3
2023-03-21T15:35:29.299Z,13.3
2023-03-21T15:37:30.687Z,13.2
2023-03-21T15:39:32.054Z,13.2
2023-03-21T15:41:36.755Z,13.3
2023-03-21T15:43:39.712Z,13.3
2023-03-21T15:45:39.889Z,13.2
2023-03-21T15:46:41.941Z,13.4
2023-03-21T15:48:43.252Z,13.4
2023-03-21T15:52:46.037Z,13.5
2023-03-21T15:56:52.085Z,13.3
2023-03-21T15:58:53.453Z,13.3
2023-03-21T16:00:55.431Z,13.3
2023-03-21T16:02:56.249Z,13.3
2023-03-21T16:04:57.593Z,13.3
2023-03-21T16:06:58.995Z,13.2
2023-03-21T16:09:03.692Z,13.3
2023-03-21T16:11:05.066Z,13.3
2023-03-21T16:13:06.448Z,13.4
2023-03-21T16:15:07.869Z,13.4
2023-03-21T16:17:09.244Z,13.5
2023-03-21T16:19:10.621Z,13.4
2023-03-21T16:21:12.043Z,13.3
2023-03-21T16:23:16.690Z,13.3
2023-03-21T16:25:18.108Z,13.2
2023-03-21T16:27:19.473Z,13.1
2023-03-21T16:29:20.891Z,13.1
2023-03-21T16:31:22.265Z,13
2023-03-21T16:33:23.641Z,13
2023-03-21T16:35:25.109Z,13
2023-03-21T16:39:31.155Z,13
2023-03-21T16:41:32.510Z,13
2023-03-21T16:42:34.894Z,12.9
2023-03-21T16:44:36.274Z,12.9
2023-03-21T16:46:37.644Z,12.9
2023-03-21T16:50:43.740Z,12.7
2023-03-21T16:52:45.121Z,12.7
2023-03-21T16:54:46.548Z,12.8
2023-03-21T16:56:47.934Z,12.8
2023-03-21T16:58:49.335Z,12.8
2023-03-21T17:00:50.732Z,12.8
2023-03-21T17:02:52.223Z,12.6
2023-03-21T17:08:59.593Z,12.4
2023-03-21T17:11:02.743Z,12.5
2023-03-21T17:13:02.374Z,12.5
2023-03-21T17:15:03.760Z,11.8
2023-03-21T17:17:05.244Z,11.3
2023-03-21T17:19:09.843Z,10.6
2023-03-21T17:21:11.257Z,10.7
2023-03-21T17:23:12.631Z,10.8
2023-03-21T17:25:14.037Z,10.9
2023-03-21T17:27:15.459Z,10.8
2023-03-21T17:29:16.824Z,10.9
2023-03-21T17:31:18.274Z,10.9
2023-03-21T17:33:22.907Z,10.9
2023-03-21T17:35:25.873Z,10.9
2023-03-21T17:37:27.208Z,11.1
2023-03-21T17:42:32.348Z,11
2023-03-21T17:44:33.721Z,11
2023-03-21T17:46:38.493Z,11.2
2023-03-21T17:48:39.811Z,11.2
2023-03-21T17:50:41.350Z,11.2
2023-03-21T17:52:42.622Z,11.4
2023-03-21T17:54:44.013Z,11.4
2023-03-21T17:56:45.400Z,11.3
2023-03-21T17:58:46.802Z,11.3
2023-03-21T18:00:51.487Z,11.3
2023-03-21T18:02:52.864Z,11.3
2023-03-21T18:04:54.298Z,11.2
2023-03-21T18:10:58.452Z,11
2023-03-21T18:12:59.853Z,11.1
2023-03-21T18:15:13.726Z,11
2023-03-21T18:17:05.908Z,11
2023-03-21T18:19:07.343Z,10.9
2023-03-21T18:21:08.714Z,10.9
2023-03-21T18:25:11.515Z,10.8
2023-03-21T18:27:12.919Z,10.8
2023-03-21T18:31:20.098Z,10.6
2023-03-21T18:37:50.584Z,10.5
2023-03-21T18:54:04.997Z,10.4
2023-03-21T18:56:10.618Z,10.3
2023-03-21T18:58:11.079Z,10.4
2023-03-21T19:00:12.840Z,10.3
2023-03-21T19:02:13.944Z,10.2
2023-03-21T19:04:23.775Z,10.2
2023-03-21T19:06:17.670Z,10.3
2023-03-21T19:08:18.042Z,10.4
2023-03-21T19:10:22.882Z,10.2
2023-03-21T19:12:24.144Z,10.1
2023-03-21T19:14:25.516Z,10.2
2023-03-21T19:18:50.302Z,10.1
2023-03-21T19:20:29.654Z,10.2
2023-03-21T19:22:31.073Z,10.2
2023-03-21T19:24:35.741Z,10.2
2023-03-21T19:26:37.138Z,10.3
2023-03-21T19:28:38.525Z,10.3
2023-03-21T19:33:43.633Z,10.1
2023-03-21T19:35:46.538Z,10.1
2023-03-21T19:41:55.461Z,10.3
2023-03-21T19:43:55.376Z,10.4
2023-03-21T19:45:55.293Z,10.6
2023-03-21T19:47:56.885Z,10.5
2023-03-21T19:52:03.046Z,10.5
2023-03-21T19:54:04.542Z,10.5
2023-03-21T19:56:19.694Z,10.5
2023-03-21T19:58:07.232Z,10.6
2023-03-21T20:00:08.606Z,10.7
2023-03-21T20:02:33.941Z,10.7
2023-03-21T20:04:11.407Z,10.7
2023-03-21T20:06:16.071Z,10.6
2023-03-21T20:08:17.872Z,10.6
2023-03-21T20:10:18.893Z,10.6
2023-03-21T20:16:23.144Z,10.4
2023-03-21T20:25:34.255Z,10.3
2023-03-21T20:27:35.597Z,10.4
2023-03-21T20:30:09.130Z,10.3
2023-03-21T20:31:39.063Z,10.3
2023-03-21T20:33:43.069Z,10.5
2023-03-21T20:36:37.355Z,10.4
2023-03-21T20:37:45.734Z,10.2
2023-03-21T20:39:47.172Z,10.3
2023-03-21T20:41:48.970Z,10.2
2023-03-21T20:45:51.334Z,10.3
2023-03-21T20:47:56.062Z,10.3
2023-03-21T20:49:57.428Z,10.3
2023-03-21T20:54:00.219Z,10.3
2023-03-21T20:56:01.610Z,10.4
2023-03-21T20:58:03.003Z,10.5
2023-03-21T21:00:04.380Z,10.4
2023-03-21T21:02:10.688Z,10.3
2023-03-21T21:06:11.845Z,10.2
2023-03-21T21:08:13.205Z,10.3
2023-03-21T21:10:14.574Z,10.2
2023-03-21T21:12:15.972Z,10.2
2023-03-21T21:14:17.358Z,10.1
2023-03-21T21:18:23.484Z,10.1
2023-03-21T21:20:24.850Z,10.1
2023-03-21T21:23:29.496Z,10.2
2023-03-21T21:25:29.953Z,10.2
2023-03-21T21:27:31.372Z,10
2023-03-21T21:29:36.040Z,10
2023-03-21T21:31:37.464Z,9.9
2023-03-21T21:33:38.820Z,9.9
2023-03-21T21:35:40.245Z,9.9
2023-03-21T21:37:41.601Z,9.9
2023-03-21T21:39:43.002Z,9.8
2023-03-21T21:41:44.403Z,9.8
2023-03-21T21:43:49.085Z,9.7
2023-03-21T21:45:50.498Z,9.7
2023-03-21T21:47:51.928Z,9.8
2023-03-21T21:49:53.260Z,9.8
2023-03-21T21:51:54.639Z,9.8
2023-03-21T21:53:56.041Z,9.6
2023-03-21T21:55:57.406Z,9.7
2023-03-21T21:58:02.145Z,9.8
2023-03-21T22:00:03.514Z,9.8
2023-03-21T22:02:05.960Z,9.8
2023-03-21T22:06:07.643Z,10
2023-03-21T22:08:10.592Z,10.1
2023-03-21T22:10:10.415Z,10.1
2023-03-21T22:12:15.088Z,10
2023-03-21T22:14:16.486Z,10.1
2023-03-21T22:16:17.923Z,10
2023-03-21T22:20:48.039Z,10
2023-03-21T22:22:49.411Z,9.8
2023-03-21T22:24:54.384Z,9.9
2023-03-21T22:26:55.843Z,10
2023-03-21T22:28:57.193Z,9.9
2023-03-21T22:30:58.602Z,10.1
2023-03-21T22:33:09.353Z,10.2
2023-03-21T22:35:01.376Z,10.2
2023-03-21T22:37:02.734Z,10.3
2023-03-21T22:39:07.409Z,10.2
2023-03-21T22:41:08.809Z,10.1
2023-03-21T22:43:10.169Z,10.1
2023-03-21T22:45:11.613Z,10
2023-03-21T22:47:12.982Z,10
2023-03-21T22:49:14.388Z,10
2023-03-21T22:51:15.777Z,10
2023-03-21T22:53:20.437Z,10.2
2023-03-21T22:57:25.836Z,10.2
2023-03-21T23:03:27.385Z,10.3
2023-03-21T23:07:33.869Z,10.2
2023-03-21T23:09:34.857Z,10.2
2023-03-21T23:12:42.054Z,10.1
2023-03-21T23:14:39.932Z,10.1
2023-03-21T23:16:41.304Z,10
2023-03-21T23:18:42.706Z,10
2023-03-21T23:20:47.365Z,10.1
2023-03-21T23:22:51.427Z,10.1
2023-03-21T23:24:51.696Z,10.1
2023-03-21T23:26:53.072Z,10.1
2023-03-21T23:28:54.452Z,10.2
2023-03-21T23:30:55.913Z,10.1
2023-03-21T23:37:03.289Z,9.9
2023-03-21T23:39:04.690Z,9.8
2023-03-21T23:41:06.098Z,9.7
2023-03-21T23:43:07.476Z,9.6
2023-03-21T23:49:15.028Z,9.6
2023-03-21T23:51:16.405Z,9.6
2023-03-21T23:53:17.741Z,9.7
